Millville, Canada
Current Conditions -  °F | °C
As of 8:53 PM on Thursday 27 Nov 2014 (Local Time) from KHUL Reporting Station
Clear Clear  
Wind Chill: 17°   Ceiling: Unl
Heat Index: 17°   Visibility: 10mi
Dew Point: 12°   Wind: 3mph
Humidity: 81%   Direction: 280°W
Pressure: 29.98"   Gusts: NA
Location:  46.13°N, 67.18°W
Report Text: KHUL 280053Z AUTO 28003KT 10SM CLR M08/M11 A2998 RMK AO2 SLP161 T10831111
Loading
Personal Weather Stations






























Interactive Weather Map New forecast layout! Learn more

10-Day Weather Forecast

Advertisements
Track Severe Weather on mobile